Cloverdale, Michigan
Current Conditions -  °F | °C
As of 10:53 AM on Tuesday 21 Oct 2014 (Local Time) from KBTL Reporting Station
Overcast Overcast  
Wind Chill: 43°   Ceiling: 3300
Heat Index: 48°   Visibility: 10mi
Dew Point: 43°   Wind: 13mph
Humidity: 83%   Direction: 10°N
Pressure: 30.08"   Gusts: NA
Location:  42.56°N, 85.43°W
Report Text: KBTL 211453Z 01011KT 10SM SCT025 OVC033 09/06 A3008 RMK AO2 RAB05E19 SLP188 P0001 60001 T00890061 51020
Loading
Personal Weather Stations






























Interactive Weather Map New forecast layout! Learn more

10-Day Weather Forecast

Advertisements
Track Severe Weather on mobile